createdAt,value
2022-12-31T00:00:23.206Z,101404.34
2022-12-31T00:02:50.560Z,101414.88
2022-12-31T00:05:18.056Z,101410.59
2022-12-31T00:07:45.227Z,101413.03
2022-12-31T00:10:13.870Z,101420.03
2022-12-31T00:12:41.193Z,101433.22
2022-12-31T00:15:08.903Z,101433.00
2022-12-31T00:17:36.281Z,101433.00
2022-12-31T00:20:03.658Z,101440.84
2022-12-31T00:22:30.820Z,101435.56
2022-12-31T00:24:58.034Z,101431.16
2022-12-31T00:27:25.624Z,101430.34
2022-12-31T00:29:52.946Z,101427.66
2022-12-31T00:32:20.173Z,101427.63
2022-12-31T00:34:47.507Z,101433.69
2022-12-31T00:37:16.777Z,101422.19
2022-12-31T00:39:44.021Z,101427.44
2022-12-31T00:42:11.595Z,101423.16
2022-12-31T00:44:38.842Z,101416.03
2022-12-31T00:47:06.160Z,101427.28
2022-12-31T00:49:33.433Z,101432.47
2022-12-31T00:52:00.822Z,101428.88
2022-12-31T00:54:28.500Z,101428.03
2022-12-31T00:56:55.969Z,101427.88
2022-12-31T00:59:23.493Z,101428.63
2022-12-31T01:01:50.734Z,101441.66
2022-12-31T01:04:20.591Z,101431.09
2022-12-31T01:06:48.192Z,101424.13
2022-12-31T01:09:17.036Z,101404.66
2022-12-31T01:11:45.040Z,101416.94
2022-12-31T01:14:17.619Z,101416.94
2022-12-31T01:16:46.260Z,101426.38
2022-12-31T01:19:20.159Z,101416.72
2022-12-31T01:21:50.323Z,101425.50
2022-12-31T01:24:18.577Z,101427.19
2022-12-31T01:26:46.588Z,101425.31
2022-12-31T01:29:15.032Z,101426.09
2022-12-31T01:31:42.499Z,101423.44
2022-12-31T01:34:10.103Z,101413.78
2022-12-31T01:36:38.678Z,101434.72
2022-12-31T01:39:08.608Z,101410.84
2022-12-31T01:41:42.052Z,101444.34
2022-12-31T01:44:12.591Z,101445.16
2022-12-31T01:46:44.806Z,101447.69
2022-12-31T01:49:25.837Z,101452.84
2022-12-31T01:52:00.800Z,101454.72
2022-12-31T01:54:29.938Z,101455.78
2022-12-31T01:56:57.703Z,101447.78
2022-12-31T01:59:28.530Z,101449.47
2022-12-31T02:01:56.854Z,101452.03
2022-12-31T02:04:27.223Z,101461.56
2022-12-31T02:07:07.200Z,101466.75
2022-12-31T02:09:38.926Z,101470.19
2022-12-31T02:12:07.559Z,101464.91
2022-12-31T02:14:55.640Z,101477.06
2022-12-31T02:17:32.080Z,101474.53
2022-12-31T02:20:05.723Z,101477.03
2022-12-31T02:23:01.734Z,101480.47
2022-12-31T02:26:03.906Z,101479.47
2022-12-31T02:29:09.089Z,101472.59
2022-12-31T02:32:00.834Z,101469.91
2022-12-31T02:34:41.076Z,101471.59
2022-12-31T02:37:12.881Z,101467.09
2022-12-31T02:39:41.613Z,101461.03
2022-12-31T02:42:11.060Z,101471.53
2022-12-31T02:44:41.293Z,101478.38
2022-12-31T02:47:08.632Z,101477.41
2022-12-31T02:49:50.549Z,101464.94
2022-12-31T02:52:24.766Z,101473.03
2022-12-31T02:55:08.993Z,101477.38
2022-12-31T02:57:57.973Z,101470.59
2022-12-31T03:00:44.127Z,101470.44
2022-12-31T03:03:12.650Z,101446.44
2022-12-31T03:05:44.310Z,101445.69
2022-12-31T03:08:11.667Z,101449.47
2022-12-31T03:10:40.335Z,101459.16
2022-12-31T03:13:07.562Z,101465.22
2022-12-31T03:15:35.304Z,101466.03
2022-12-31T03:18:10.643Z,101461.69
2022-12-31T03:21:03.019Z,101461.69
2022-12-31T03:23:36.787Z,101460.84
2022-12-31T03:26:12.786Z,101455.53
2022-12-31T03:28:43.140Z,101448.44
2022-12-31T03:31:10.536Z,101455.31
2022-12-31T03:33:40.798Z,101449.31
2022-12-31T03:36:13.113Z,101450.25
2022-12-31T03:38:41.270Z,101423.50
2022-12-31T03:41:10.858Z,101452.00
2022-12-31T03:43:39.282Z,101440.31
2022-12-31T03:46:06.858Z,101451.81
2022-12-31T03:48:35.410Z,101445.44
2022-12-31T03:51:05.460Z,101449.94
2022-12-31T03:53:35.361Z,101442.81
2022-12-31T03:56:02.870Z,101445.38
2022-12-31T03:58:33.172Z,101440.22
2022-12-31T04:01:00.634Z,101452.44
2022-12-31T04:03:28.842Z,101445.38
2022-12-31T04:05:56.576Z,101448.94
2022-12-31T04:08:25.197Z,101431.28
2022-12-31T04:10:52.503Z,101440.16
2022-12-31T04:13:19.791Z,101445.31
2022-12-31T04:15:50.625Z,101432.06
2022-12-31T04:18:17.856Z,101444.16
2022-12-31T04:20:45.204Z,101442.41
2022-12-31T04:23:14.696Z,101443.19
2022-12-31T04:25:42.189Z,101440.59
2022-12-31T04:28:11.557Z,101436.97
2022-12-31T04:30:38.790Z,101437.81
2022-12-31T04:33:05.941Z,101428.16
2022-12-31T04:35:34.220Z,101430.88
2022-12-31T04:38:01.410Z,101429.88
2022-12-31T04:40:29.174Z,101430.59
2022-12-31T04:42:56.466Z,101428.91
2022-12-31T04:45:24.091Z,101428.97
2022-12-31T04:47:51.880Z,101434.91
2022-12-31T04:50:19.081Z,101434.91
2022-12-31T04:52:46.343Z,101433.03
2022-12-31T04:55:14.728Z,101427.78
2022-12-31T04:57:42.420Z,101425.25
2022-12-31T05:00:10.139Z,101417.38
2022-12-31T05:02:37.655Z,101424.31
2022-12-31T05:05:05.849Z,101420.88
2022-12-31T05:07:33.260Z,101423.50
2022-12-31T05:10:02.947Z,101419.03
2022-12-31T05:12:30.882Z,101409.44
2022-12-31T05:14:58.527Z,101425.84
2022-12-31T05:17:25.914Z,101421.34
2022-12-31T05:19:53.139Z,101424.81
2022-12-31T05:22:30.210Z,101427.41
2022-12-31T05:24:59.048Z,101425.63
2022-12-31T05:27:27.561Z,101423.00
2022-12-31T05:29:54.841Z,101420.47
2022-12-31T05:32:22.158Z,101417.88
2022-12-31T05:34:49.594Z,101422.06
2022-12-31T05:37:16.842Z,101420.22
2022-12-31T05:39:44.150Z,101425.41
2022-12-31T05:42:11.583Z,101432.38
2022-12-31T05:44:42.433Z,101436.66
2022-12-31T05:47:09.895Z,101431.38
2022-12-31T05:49:37.134Z,101430.63
2022-12-31T05:52:04.843Z,101443.72
2022-12-31T05:54:36.875Z,101433.09
2022-12-31T05:57:06.750Z,101438.59
2022-12-31T05:59:34.929Z,101429.78
2022-12-31T06:02:02.882Z,101398.00
2022-12-31T06:04:31.099Z,101429.06
2022-12-31T06:06:58.454Z,101423.72
2022-12-31T06:09:26.585Z,101428.13
2022-12-31T06:11:53.938Z,101436.06
2022-12-31T06:14:21.520Z,101432.63
2022-12-31T06:16:48.779Z,101429.94
2022-12-31T06:19:17.068Z,101441.41
2022-12-31T06:21:45.005Z,101435.25
2022-12-31T06:24:12.586Z,101429.72
2022-12-31T06:26:39.796Z,101440.44
2022-12-31T06:29:07.883Z,101379.75
2022-12-31T06:31:37.357Z,101430.19
2022-12-31T06:34:04.837Z,101426.75
2022-12-31T06:36:32.693Z,101420.63
2022-12-31T06:39:07.441Z,101405.63
2022-12-31T06:41:35.024Z,101412.72
2022-12-31T06:44:02.244Z,101413.59
2022-12-31T06:46:29.994Z,101409.16
2022-12-31T06:49:00.048Z,101413.66
2022-12-31T06:51:27.574Z,101408.31
2022-12-31T06:53:54.863Z,101415.59
2022-12-31T06:56:33.102Z,101419.03
2022-12-31T06:59:02.716Z,101409.47
2022-12-31T07:01:52.085Z,101429.41
2022-12-31T07:04:53.424Z,101420.63
2022-12-31T07:07:43.718Z,101418.03
2022-12-31T07:10:29.967Z,101416.13
2022-12-31T07:13:05.099Z,101426.03
2022-12-31T07:15:59.838Z,101419.69
2022-12-31T07:18:33.519Z,101415.47
2022-12-31T07:21:00.958Z,101411.03
2022-12-31T07:23:28.658Z,101412.75
2022-12-31T07:26:09.586Z,101404.84
2022-12-31T07:28:50.013Z,101414.38
2022-12-31T07:31:23.700Z,101422.19
2022-12-31T07:34:06.031Z,101419.59
2022-12-31T07:36:53.116Z,101412.56
2022-12-31T07:39:35.983Z,101412.34
2022-12-31T07:42:32.489Z,101427.28
2022-12-31T07:45:08.372Z,101416.03
2022-12-31T07:47:36.312Z,101416.78
2022-12-31T07:50:04.168Z,101415.25
2022-12-31T07:52:31.606Z,101421.16
2022-12-31T07:54:59.054Z,101417.25
2022-12-31T07:57:37.221Z,101420.81
2022-12-31T08:00:11.784Z,101421.34
2022-12-31T08:03:19.547Z,101423.34
2022-12-31T08:06:09.992Z,101424.09
2022-12-31T08:08:47.346Z,101424.13
2022-12-31T08:11:23.679Z,101422.59
2022-12-31T08:13:54.184Z,101413.75
2022-12-31T08:16:22.339Z,101415.59
2022-12-31T08:18:49.957Z,101416.47
2022-12-31T08:21:42.193Z,101429.31
2022-12-31T08:24:36.567Z,101410.38
2022-12-31T08:27:28.656Z,101431.31
2022-12-31T08:30:12.026Z,101429.59
2022-12-31T08:33:04.838Z,101424.13
2022-12-31T08:36:04.793Z,101425.19
2022-12-31T08:38:45.774Z,101435.66
2022-12-31T08:41:42.341Z,101447.25
2022-12-31T08:44:32.206Z,101454.38
2022-12-31T08:47:34.145Z,101467.56
2022-12-31T08:50:06.222Z,101473.72
2022-12-31T08:52:33.623Z,101470.47
2022-12-31T08:55:01.635Z,101478.31
2022-12-31T08:57:46.912Z,101477.47
2022-12-31T09:00:17.267Z,101472.38
2022-12-31T09:03:03.280Z,101482.25
2022-12-31T09:05:59.179Z,101492.88
2022-12-31T09:08:41.529Z,101493.88
2022-12-31T09:11:23.068Z,101501.69
2022-12-31T09:14:08.187Z,101477.81
2022-12-31T09:16:53.552Z,101486.03
2022-12-31T09:19:21.009Z,101487.03
2022-12-31T09:21:48.675Z,101495.31
2022-12-31T09:24:17.357Z,101491.19
2022-12-31T09:27:28.430Z,101499.91
2022-12-31T09:30:11.041Z,101506.13
2022-12-31T09:33:00.865Z,101490.50
2022-12-31T09:35:41.207Z,101509.28
2022-12-31T09:38:30.241Z,101506.59
2022-12-31T09:41:06.750Z,101499.72
2022-12-31T09:44:01.333Z,101504.03
2022-12-31T09:46:31.531Z,101505.22
2022-12-31T09:49:21.364Z,101506.44
2022-12-31T09:52:16.972Z,101504.56
2022-12-31T09:54:59.249Z,101509.22
2022-12-31T09:57:59.081Z,101508.31
2022-12-31T10:00:38.823Z,101471.13
2022-12-31T10:03:20.420Z,101510.25
2022-12-31T10:06:18.376Z,101507.78
2022-12-31T10:09:11.775Z,101519.97
2022-12-31T10:11:55.423Z,101525.56
2022-12-31T10:14:25.706Z,101530.06
2022-12-31T10:17:15.004Z,101522.19
2022-12-31T10:20:00.407Z,101499.31
2022-12-31T10:23:05.292Z,101513.75
2022-12-31T10:26:11.198Z,101519.94
2022-12-31T10:28:54.741Z,101490.75
2022-12-31T10:31:48.723Z,101525.34
2022-12-31T10:34:26.025Z,101522.78
2022-12-31T10:36:54.031Z,101521.16
2022-12-31T10:39:27.395Z,101518.78
2022-12-31T10:42:13.142Z,101517.94
2022-12-31T10:45:01.271Z,101507.56
2022-12-31T10:47:31.419Z,101511.19
2022-12-31T10:50:12.973Z,101510.53
2022-12-31T10:52:42.186Z,101504.59
2022-12-31T10:55:36.679Z,101503.84
2022-12-31T10:58:13.547Z,101503.22
2022-12-31T11:00:59.212Z,101475.22
2022-12-31T11:04:04.404Z,101507.91
2022-12-31T11:07:13.716Z,101495.56
2022-12-31T11:09:59.786Z,101509.03
2022-12-31T11:12:51.693Z,101474.78
2022-12-31T11:15:22.179Z,101453.56
2022-12-31T11:18:04.552Z,101476.81
2022-12-31T11:20:58.253Z,101497.31
2022-12-31T11:23:55.644Z,101499.28
2022-12-31T11:26:30.951Z,101501.25
2022-12-31T11:28:58.176Z,101499.63
2022-12-31T11:31:43.463Z,101487.47
2022-12-31T11:34:40.110Z,101483.25
2022-12-31T11:37:29.857Z,101485.22
2022-12-31T11:40:21.415Z,101492.31
2022-12-31T11:43:01.138Z,101481.84
2022-12-31T11:45:43.241Z,101484.59
2022-12-31T11:48:30.540Z,101484.63
2022-12-31T11:51:17.003Z,101476.72
2022-12-31T11:53:58.320Z,101476.06
2022-12-31T11:56:31.810Z,101476.22
2022-12-31T11:58:59.174Z,101465.78
2022-12-31T12:01:42.977Z,101447.41
2022-12-31T12:04:11.568Z,101464.25
2022-12-31T12:06:41.101Z,101457.25
2022-12-31T12:09:16.328Z,101460.94
2022-12-31T12:11:43.720Z,101451.25
2022-12-31T12:14:41.637Z,101449.56
2022-12-31T12:17:32.823Z,101426.69
2022-12-31T12:20:06.272Z,101444.47
2022-12-31T12:22:33.679Z,101444.66
2022-12-31T12:25:08.667Z,101428.94
2022-12-31T12:27:36.874Z,101435.19
2022-12-31T12:30:24.318Z,101421.97
2022-12-31T12:33:00.477Z,101437.16
2022-12-31T12:35:34.454Z,101428.47
2022-12-31T12:38:04.108Z,101429.44
2022-12-31T12:40:35.259Z,101419.88
2022-12-31T12:43:03.923Z,101433.16
2022-12-31T12:45:52.168Z,101420.91
2022-12-31T12:48:42.358Z,101423.72
2022-12-31T12:51:37.777Z,101426.34
2022-12-31T12:54:16.895Z,101411.47
2022-12-31T12:57:10.894Z,101416.06
2022-12-31T13:00:09.698Z,101402.97
2022-12-31T13:02:43.283Z,101417.94
2022-12-31T13:05:28.523Z,101411.88
2022-12-31T13:08:02.106Z,101420.75
2022-12-31T13:10:56.478Z,101406.81
2022-12-31T13:13:43.525Z,101413.03
2022-12-31T13:16:36.088Z,101411.25
2022-12-31T13:19:17.149Z,101394.47
2022-12-31T13:21:59.659Z,101404.28
2022-12-31T13:24:33.360Z,101399.91
2022-12-31T13:27:08.654Z,101380.53
2022-12-31T13:29:37.115Z,101398.19
2022-12-31T13:32:08.358Z,101394.72
2022-12-31T13:34:41.149Z,101387.78
2022-12-31T13:37:19.032Z,101391.41
2022-12-31T13:39:50.181Z,101391.47
2022-12-31T13:42:24.280Z,101392.28
2022-12-31T13:45:06.248Z,101391.38
2022-12-31T13:47:48.738Z,101393.22
2022-12-31T13:50:33.356Z,101395.13
2022-12-31T13:53:12.916Z,101401.19
2022-12-31T13:55:49.741Z,101402.16
2022-12-31T13:58:34.756Z,101395.88
2022-12-31T14:01:35.026Z,101404.63
2022-12-31T14:04:28.500Z,101393.34
2022-12-31T14:07:45.375Z,101398.63
2022-12-31T14:10:20.037Z,101402.03
2022-12-31T14:13:04.993Z,101398.56
2022-12-31T14:16:02.152Z,101389.88
2022-12-31T14:18:32.283Z,101395.31
2022-12-31T14:21:11.877Z,101393.53
2022-12-31T14:23:48.576Z,101378.34
2022-12-31T14:26:30.296Z,101404.84
2022-12-31T14:29:15.477Z,101402.00
2022-12-31T14:32:07.368Z,101394.91
2022-12-31T14:34:50.057Z,101400.03
2022-12-31T14:37:46.158Z,101375.34
2022-12-31T14:40:33.086Z,101359.44
2022-12-31T14:43:34.299Z,101400.06
2022-12-31T14:46:13.960Z,101392.94
2022-12-31T14:48:56.684Z,101395.56
2022-12-31T14:51:29.538Z,101395.41
2022-12-31T14:53:58.826Z,101402.53
2022-12-31T14:56:40.648Z,101399.72
2022-12-31T14:59:29.068Z,101391.78
2022-12-31T15:01:58.697Z,101400.44
2022-12-31T15:04:44.955Z,101381.88
2022-12-31T15:07:28.167Z,101407.38
2022-12-31T15:10:34.216Z,101414.41
2022-12-31T15:13:49.370Z,101416.88
2022-12-31T15:16:28.338Z,101416.03
2022-12-31T15:19:17.065Z,101418.59
2022-12-31T15:22:05.025Z,101414.91
2022-12-31T15:24:33.206Z,101412.28
2022-12-31T15:27:04.966Z,101414.63
2022-12-31T15:29:44.584Z,101409.34
2022-12-31T15:32:19.829Z,101408.28
2022-12-31T15:34:47.286Z,101409.84
2022-12-31T15:37:58.953Z,101401.75
2022-12-31T15:40:26.313Z,101397.16
2022-12-31T15:42:59.774Z,101390.06
2022-12-31T15:45:38.584Z,101400.72
2022-12-31T15:48:17.006Z,101386.50
2022-12-31T15:50:46.321Z,101400.50
2022-12-31T15:53:46.087Z,101407.59
2022-12-31T15:56:21.723Z,101402.41
2022-12-31T15:58:54.565Z,101403.19
2022-12-31T16:01:28.308Z,101388.84
2022-12-31T16:04:06.034Z,101393.34
2022-12-31T16:06:38.186Z,101403.66
2022-12-31T16:09:10.288Z,101401.84
2022-12-31T16:11:42.096Z,101398.03
2022-12-31T16:14:20.804Z,101404.16
2022-12-31T16:17:07.852Z,101403.72
2022-12-31T16:19:42.408Z,101409.66
2022-12-31T16:22:36.176Z,101396.94
2022-12-31T16:27:55.009Z,101402.94
2022-12-31T16:30:36.367Z,101407.25
2022-12-31T16:33:07.150Z,101413.97
2022-12-31T16:35:37.107Z,101401.44
2022-12-31T16:38:18.538Z,101424.47
2022-12-31T16:41:19.562Z,101424.31
2022-12-31T16:43:51.141Z,101421.56
2022-12-31T16:46:38.518Z,101433.78
2022-12-31T16:49:19.949Z,101378.88
2022-12-31T16:51:50.097Z,101432.59
2022-12-31T16:54:30.098Z,101428.94
2022-12-31T16:56:59.374Z,101430.50
2022-12-31T16:59:34.778Z,101426.91
2022-12-31T17:02:10.189Z,101426.16
2022-12-31T17:04:43.210Z,101433.91
2022-12-31T17:07:33.152Z,101425.03
2022-12-31T17:10:09.624Z,101431.31
2022-12-31T17:13:17.404Z,101426.53
2022-12-31T17:15:43.518Z,101420.88
2022-12-31T17:18:24.493Z,101425.81
2022-12-31T17:20:53.831Z,101422.41
2022-12-31T17:23:28.985Z,101429.28
2022-12-31T17:26:01.486Z,101422.91
2022-12-31T17:28:38.488Z,101426.28
2022-12-31T17:31:25.864Z,101434.03
2022-12-31T17:34:14.209Z,101403.25
2022-12-31T17:37:22.520Z,101427.81
2022-12-31T17:39:52.363Z,101417.91
2022-12-31T17:42:33.997Z,101408.94
2022-12-31T17:45:20.247Z,101418.75
2022-12-31T17:47:51.232Z,101413.53
2022-12-31T17:50:20.722Z,101422.19
2022-12-31T17:52:48.344Z,101430.06
2022-12-31T17:55:16.571Z,101439.25
2022-12-31T17:57:56.075Z,101434.72
2022-12-31T18:00:26.995Z,101442.56
2022-12-31T18:02:54.461Z,101448.84
2022-12-31T18:05:23.681Z,101442.91
2022-12-31T18:07:51.223Z,101450.84
2022-12-31T18:10:20.857Z,101445.81
2022-12-31T18:12:49.527Z,101444.63
2022-12-31T18:15:19.894Z,101437.53
2022-12-31T18:17:47.637Z,101443.22
2022-12-31T18:20:16.187Z,101438.78
2022-12-31T18:22:45.412Z,101438.38
2022-12-31T18:25:24.117Z,101446.47
2022-12-31T18:27:52.657Z,101442.00
2022-12-31T18:30:20.212Z,101459.50
2022-12-31T18:32:47.665Z,101460.28
2022-12-31T18:35:57.738Z,101462.84
2022-12-31T18:38:18.428Z,101466.88
2022-12-31T18:40:56.405Z,101449.47
2022-12-31T18:43:24.685Z,101454.69
2022-12-31T18:45:52.952Z,101465.94
2022-12-31T18:48:20.422Z,101468.19
2022-12-31T18:50:47.753Z,101466.94
2022-12-31T18:53:18.351Z,101460.72
2022-12-31T18:55:47.927Z,101474.66
2022-12-31T18:58:15.429Z,101476.56
2022-12-31T19:00:43.415Z,101479.94
2022-12-31T19:03:19.777Z,101480.53
2022-12-31T19:05:50.038Z,101447.16
2022-12-31T19:08:19.203Z,101482.03
2022-12-31T19:10:48.198Z,101487.25
2022-12-31T19:13:18.340Z,101497.72
2022-12-31T19:15:51.034Z,101485.28
2022-12-31T19:18:18.884Z,101463.84
2022-12-31T19:20:47.847Z,101494.16
2022-12-31T19:23:18.489Z,101498.22
2022-12-31T19:25:49.083Z,101492.03
2022-12-31T19:28:22.970Z,101485.97
2022-12-31T19:30:50.306Z,101491.13
2022-12-31T19:33:18.207Z,101498.09
2022-12-31T19:35:46.479Z,101478.81
2022-12-31T19:38:25.583Z,101473.50
2022-12-31T19:40:56.070Z,101489.25
2022-12-31T19:43:24.197Z,101471.69
2022-12-31T19:45:52.445Z,101478.28
2022-12-31T19:48:30.295Z,101479.19
2022-12-31T19:51:04.693Z,101472.06
2022-12-31T19:53:32.264Z,101484.91
2022-12-31T19:55:59.492Z,101482.31
2022-12-31T19:58:27.219Z,101466.22
2022-12-31T20:01:02.338Z,101492.81
2022-12-31T20:03:32.910Z,101500.69
2022-12-31T20:06:07.574Z,101464.19
2022-12-31T20:08:36.730Z,101503.25
2022-12-31T20:11:12.437Z,101465.13
2022-12-31T20:13:40.644Z,101497.75
2022-12-31T20:16:09.744Z,101505.75
2022-12-31T20:18:38.604Z,101502.88
2022-12-31T20:21:12.846Z,101500.25
2022-12-31T20:23:40.603Z,101499.88
2022-12-31T20:26:10.617Z,101508.59
2022-12-31T20:28:38.636Z,101506.63
2022-12-31T20:31:12.119Z,101494.41
2022-12-31T20:33:39.674Z,101489.19
2022-12-31T20:36:09.949Z,101507.59
2022-12-31T20:38:37.726Z,101505.91
2022-12-31T20:41:06.132Z,101510.38
2022-12-31T20:43:34.723Z,101502.31
2022-12-31T20:46:15.636Z,101480.84
2022-12-31T20:48:45.228Z,101504.69
2022-12-31T20:51:14.386Z,101515.25
2022-12-31T20:53:48.958Z,101513.25
2022-12-31T20:56:16.935Z,101514.94
2022-12-31T20:58:44.946Z,101516.56
2022-12-31T21:01:12.786Z,101519.97
2022-12-31T21:06:29.797Z,101518.13
2022-12-31T21:08:58.619Z,101531.09
2022-12-31T21:11:44.917Z,101522.06
2022-12-31T21:14:12.222Z,101528.97
2022-12-31T21:16:39.594Z,101524.84
2022-12-31T21:19:06.988Z,101531.09
2022-12-31T21:21:34.436Z,101537.09
2022-12-31T21:24:01.957Z,101538.84
2022-12-31T21:26:29.765Z,101538.78
2022-12-31T21:28:57.312Z,101530.31
2022-12-31T21:31:25.148Z,101551.34
2022-12-31T21:33:52.271Z,101539.91
2022-12-31T21:36:20.038Z,101548.75
2022-12-31T21:38:47.362Z,101557.47
2022-12-31T21:41:35.057Z,101570.53
2022-12-31T21:44:03.407Z,101563.31
2022-12-31T21:46:31.172Z,101565.78
2022-12-31T21:49:00.135Z,101566.66
2022-12-31T21:51:28.502Z,101572.78
2022-12-31T21:53:56.097Z,101562.16
2022-12-31T21:56:24.086Z,101561.28
2022-12-31T21:59:15.618Z,101564.88
2022-12-31T22:02:02.409Z,101551.50
2022-12-31T22:07:17.510Z,101572.50
2022-12-31T22:09:45.186Z,101577.78
2022-12-31T22:12:12.515Z,101576.63
2022-12-31T22:15:14.856Z,101567.69
2022-12-31T22:17:27.709Z,101565.25
2022-12-31T22:22:42.283Z,101562.41
2022-12-31T22:25:09.928Z,101577.22
2022-12-31T22:27:37.711Z,101572.84
2022-12-31T22:30:06.031Z,101575.34
2022-12-31T22:32:33.398Z,101569.88
2022-12-31T22:35:00.708Z,101564.66
2022-12-31T22:37:55.510Z,101560.25
2022-12-31T22:40:15.279Z,101566.66
2022-12-31T22:42:42.835Z,101572.88
2022-12-31T22:45:10.806Z,101584.31
2022-12-31T22:47:38.126Z,101593.00
2022-12-31T22:50:05.777Z,101579.78
2022-12-31T22:52:33.336Z,101586.91
2022-12-31T22:55:00.616Z,101588.56
2022-12-31T22:57:27.905Z,101590.28
2022-12-31T22:59:55.254Z,101587.75
2022-12-31T23:02:22.787Z,101581.38
2022-12-31T23:04:50.007Z,101584.06
2022-12-31T23:07:17.379Z,101579.66
2022-12-31T23:10:03.106Z,101586.66
2022-12-31T23:12:31.873Z,101590.81
2022-12-31T23:15:17.712Z,101589.28
2022-12-31T23:18:03.808Z,101596.16
2022-12-31T23:20:49.702Z,101590.09
2022-12-31T23:23:17.533Z,101585.72
2022-12-31T23:25:48.166Z,101574.59
2022-12-31T23:28:21.615Z,101583.38
2022-12-31T23:30:49.096Z,101595.50
2022-12-31T23:33:22.272Z,101600.72
2022-12-31T23:35:49.727Z,101590.88
2022-12-31T23:38:19.556Z,101597.69
2022-12-31T23:40:47.367Z,101591.53
2022-12-31T23:43:22.653Z,101598.50
2022-12-31T23:45:52.153Z,101608.19
2022-12-31T23:48:19.502Z,101612.59
2022-12-31T23:50:52.954Z,101607.28
2022-12-31T23:53:20.859Z,101620.53
2022-12-31T23:55:48.041Z,101613.47
2022-12-31T23:58:15.902Z,101616.78
